Time;durP1;ratioP1;P1;durP2;ratioP2;P2;SDS_P1;SDS_P2;PMS_P1;PMS_P2;Temp;Humidity;BMP_temperature;BMP_pressure;BME280_temperature;BME280_humidity;BME280_pressure;Samples;Min_cycle;Max_cycle;Signal;HPM_P1;HPM_P2
2023/08/13 00:02:06;;;;;;;5.63;1.02;;;17.50;99.90;;;;;;5011018;28;20041;-74
2023/08/13 00:04:33;;;;;;;4.30;1.02;;;17.50;99.90;;;;;;5011193;28;20033;-75
2023/08/13 00:07:01;;;;;;;7.15;1.30;;;17.50;99.90;;;;;;4998437;28;20044;-74
2023/08/13 00:09:27;;;;;;;5.53;1.38;;;17.40;99.90;;;;;;5018618;28;20419;-75
2023/08/13 00:11:54;;;;;;;3.65;0.70;;;17.40;99.90;;;;;;5022929;28;20373;-74
2023/08/13 00:14:21;;;;;;;4.00;1.00;;;17.30;99.90;;;;;;4987942;28;20499;-75
2023/08/13 00:16:48;;;;;;;2.92;0.75;;;17.30;99.90;;;;;;4995304;28;20052;-73
2023/08/13 00:19:15;;;;;;;3.25;0.70;;;17.30;99.90;;;;;;5010583;28;20052;-75
2023/08/13 00:21:41;;;;;;;4.63;0.73;;;17.20;99.90;;;;;;5011943;28;20048;-73
2023/08/13 00:24:07;;;;;;;5.65;1.13;;;17.20;99.90;;;;;;5010734;28;20041;-73
2023/08/13 00:26:34;;;;;;;4.78;0.80;;;17.20;99.90;;;;;;5012127;28;20866;-73
2023/08/13 00:29:00;;;;;;;4.10;0.85;;;17.10;99.90;;;;;;5017090;28;20045;-74
2023/08/13 00:31:27;;;;;;;2.03;0.75;;;17.10;99.90;;;;;;5004335;28;20048;-74
2023/08/13 00:33:53;;;;;;;2.65;0.63;;;17.10;99.90;;;;;;5016261;28;20033;-74
2023/08/13 00:36:20;;;;;;;2.53;0.77;;;17.00;99.90;;;;;;5010477;28;20108;-75
2023/08/13 00:38:46;;;;;;;3.55;0.82;;;17.00;99.90;;;;;;5007970;28;20036;-74
2023/08/13 00:41:13;;;;;;;3.83;0.70;;;16.90;99.90;;;;;;4997175;28;20044;-74
2023/08/13 00:43:40;;;;;;;3.45;0.77;;;16.90;99.90;;;;;;4976279;28;20128;-73
2023/08/13 00:46:07;;;;;;;2.25;0.70;;;16.90;99.90;;;;;;4992156;28;20033;-73
2023/08/13 00:48:37;;;;;;;1.65;0.50;;;16.80;99.90;;;;;;4990164;28;20422;-74
2023/08/13 00:51:04;;;;;;;3.95;0.80;;;16.80;99.90;;;;;;4987849;28;20021;-73
2023/08/13 00:53:32;;;;;;;1.77;0.80;;;16.80;99.90;;;;;;5018338;28;20333;-74
2023/08/13 00:55:59;;;;;;;0.90;0.45;;;16.80;99.90;;;;;;5010661;28;20056;-74
2023/08/13 00:58:25;;;;;;;2.13;0.50;;;16.70;99.90;;;;;;5006267;28;20035;-73
2023/08/13 01:00:52;;;;;;;4.22;0.73;;;16.70;99.90;;;;;;5009017;28;20056;-74
2023/08/13 01:03:19;;;;;;;6.47;0.85;;;16.70;99.90;;;;;;4976946;28;20037;-73
2023/08/13 01:06:03;;;;;;;8.50;0.80;;;16.70;99.90;;;;;;5008071;28;20025;-74
2023/08/13 01:08:39;;;;;;;5.10;0.70;;;16.70;99.90;;;;;;4995069;28;20041;-74
2023/08/13 01:11:47;;;;;;;2.10;0.60;;;16.60;99.90;;;;;;5002547;28;20036;-74
2023/08/13 01:14:53;;;;;;;2.75;0.70;;;16.60;99.90;;;;;;5020294;28;20484;-74
2023/08/13 01:17:22;;;;;;;5.28;0.75;;;16.60;99.90;;;;;;4996266;28;20040;-74
2023/08/13 01:19:48;;;;;;;2.47;0.80;;;16.50;99.90;;;;;;5012231;28;20463;-73
2023/08/13 01:22:15;;;;;;;2.38;0.70;;;16.50;99.90;;;;;;5005500;28;20044;-74
2023/08/13 01:24:41;;;;;;;3.35;1.08;;;16.40;99.90;;;;;;4994199;28;20475;-75
2023/08/13 01:27:15;;;;;;;2.45;0.80;;;16.50;99.90;;;;;;4993468;28;20033;-73
2023/08/13 01:29:53;;;;;;;3.63;0.70;;;16.40;99.90;;;;;;4992740;28;20037;-74
2023/08/13 01:32:28;;;;;;;6.40;1.08;;;16.40;99.90;;;;;;5022479;28;20040;-73
2023/08/13 01:34:55;;;;;;;3.05;0.70;;;16.40;99.90;;;;;;5017434;28;20040;-73
2023/08/13 01:37:22;;;;;;;2.85;0.70;;;16.40;99.90;;;;;;5011727;28;20662;-74
2023/08/13 01:39:49;;;;;;;3.67;0.77;;;16.30;99.90;;;;;;4993060;28;20970;-74
2023/08/13 01:42:16;;;;;;;4.13;0.90;;;16.30;99.90;;;;;;5008990;28;20581;-74
2023/08/13 01:44:42;;;;;;;2.58;0.70;;;16.30;99.90;;;;;;5008124;28;20033;-74
2023/08/13 01:47:08;;;;;;;3.05;0.70;;;16.30;99.90;;;;;;5011099;28;20037;-73
2023/08/13 01:49:35;;;;;;;3.47;0.80;;;16.30;99.90;;;;;;4997473;28;20051;-74
2023/08/13 01:52:01;;;;;;;3.20;0.93;;;16.20;99.90;;;;;;5004854;28;20040;-73
2023/08/13 01:54:28;;;;;;;3.92;0.95;;;16.20;99.90;;;;;;5023492;28;20044;-74
2023/08/13 01:56:54;;;;;;;5.35;0.80;;;16.20;99.90;;;;;;5018333;28;20045;-73
2023/08/13 01:59:21;;;;;;;5.18;0.73;;;16.20;99.90;;;;;;4986103;28;20041;-74
2023/08/13 02:01:47;;;;;;;4.60;0.73;;;16.10;99.90;;;;;;4977747;28;20735;-74
2023/08/13 02:04:14;;;;;;;3.95;0.93;;;16.10;99.90;;;;;;4994299;28;20629;-73
2023/08/13 02:06:40;;;;;;;2.35;0.70;;;16.10;99.90;;;;;;5014097;28;20394;-74
2023/08/13 02:09:07;;;;;;;5.68;0.80;;;16.10;99.90;;;;;;4986163;28;20847;-74
2023/08/13 02:11:33;;;;;;;4.90;0.80;;;16.00;99.90;;;;;;4992126;28;20033;-74
2023/08/13 02:14:00;;;;;;;4.82;0.98;;;16.00;99.90;;;;;;5011483;28;20029;-73
2023/08/13 02:16:27;;;;;;;4.65;0.63;;;16.00;99.90;;;;;;5000235;28;20905;-74
2023/08/13 02:18:53;;;;;;;5.13;0.80;;;16.00;99.90;;;;;;5023961;28;20040;-74
2023/08/13 02:21:20;;;;;;;2.50;0.63;;;16.00;99.90;;;;;;4989706;28;20412;-75
2023/08/13 02:23:46;;;;;;;5.35;1.02;;;16.00;99.90;;;;;;5011811;28;20032;-73
2023/08/13 02:26:14;;;;;;;3.97;0.80;;;16.00;99.90;;;;;;5013128;28;21168;-75
2023/08/13 02:28:43;;;;;;;4.72;0.90;;;15.90;99.90;;;;;;4995501;28;20033;-74
2023/08/13 02:31:10;;;;;;;3.53;0.68;;;15.90;99.90;;;;;;5004532;28;20041;-74
2023/08/13 02:33:36;;;;;;;4.63;0.85;;;15.90;99.90;;;;;;5004591;28;20033;-75
2023/08/13 02:36:03;;;;;;;2.92;0.60;;;15.90;99.90;;;;;;5013555;28;20041;-73
2023/08/13 02:38:29;;;;;;;6.13;0.75;;;15.90;99.90;;;;;;4989622;28;20045;-73
2023/08/13 02:40:55;;;;;;;3.95;0.70;;;15.90;99.90;;;;;;5024147;28;23602;-73
2023/08/13 02:43:22;;;;;;;3.25;0.65;;;15.90;99.90;;;;;;4984765;28;21449;-73
2023/08/13 02:45:48;;;;;;;5.93;0.70;;;15.90;99.90;;;;;;5010650;28;20032;-73
2023/08/13 02:48:15;;;;;;;3.25;0.60;;;15.80;99.90;;;;;;5008944;28;20036;-74
2023/08/13 02:50:41;;;;;;;3.35;0.70;;;15.90;99.90;;;;;;4995721;28;20029;-73
2023/08/13 02:53:08;;;;;;;3.45;0.70;;;15.80;99.90;;;;;;5022359;28;20040;-74
2023/08/13 02:55:34;;;;;;;3.33;0.65;;;15.80;99.90;;;;;;5009387;28;20037;-75
2023/08/13 02:58:00;;;;;;;2.65;0.50;;;15.80;99.90;;;;;;5018540;28;20048;-74
2023/08/13 03:00:27;;;;;;;3.45;0.70;;;15.70;99.90;;;;;;5002606;28;20037;-73
2023/08/13 03:02:53;;;;;;;3.53;0.50;;;15.80;99.90;;;;;;5019914;28;22500;-75
2023/08/13 03:05:20;;;;;;;5.47;0.73;;;15.80;99.90;;;;;;5012469;28;20040;-74
2023/08/13 03:07:46;;;;;;;3.58;0.70;;;15.70;99.90;;;;;;5010020;28;20694;-73
2023/08/13 03:10:13;;;;;;;5.75;0.80;;;15.70;99.90;;;;;;5004607;28;20495;-74
2023/08/13 03:12:39;;;;;;;4.53;0.80;;;15.70;99.90;;;;;;5012105;28;20040;-73
2023/08/13 03:15:07;;;;;;;3.15;0.73;;;15.70;99.90;;;;;;5009675;28;20036;-73
2023/08/13 03:17:33;;;;;;;4.90;0.90;;;15.70;99.90;;;;;;5011971;28;20036;-74
2023/08/13 03:20:01;;;;;;;4.05;0.70;;;15.70;99.90;;;;;;5001972;28;20045;-73
2023/08/13 03:22:28;;;;;;;4.10;1.00;;;15.70;99.90;;;;;;5020616;28;20028;-73
2023/08/13 03:24:54;;;;;;;4.30;1.20;;;15.70;99.90;;;;;;5013417;28;20037;-73
2023/08/13 03:27:21;;;;;;;7.13;1.42;;;15.70;99.90;;;;;;4995385;28;20033;-73
2023/08/13 03:29:47;;;;;;;6.20;1.23;;;15.70;99.90;;;;;;4993170;28;20057;-73
2023/08/13 03:32:15;;;;;;;5.38;1.10;;;15.70;99.90;;;;;;5010396;28;20041;-73
2023/08/13 03:34:42;;;;;;;2.72;1.00;;;15.70;99.90;;;;;;5012303;28;20033;-73
2023/08/13 03:37:09;;;;;;;6.40;0.88;;;15.70;99.90;;;;;;4994427;28;20033;-74
2023/08/13 03:39:36;;;;;;;3.58;0.80;;;15.70;99.90;;;;;;5015386;28;20037;-74
2023/08/13 03:42:03;;;;;;;7.90;0.98;;;15.60;99.90;;;;;;4989354;28;20029;-74
2023/08/13 03:44:29;;;;;;;5.97;0.82;;;15.60;99.90;;;;;;5019463;28;20052;-73
2023/08/13 03:46:56;;;;;;;3.28;0.55;;;15.60;99.90;;;;;;4983328;28;20049;-74
2023/08/13 03:49:23;;;;;;;1.60;0.60;;;15.60;99.90;;;;;;4992207;28;20025;-73
2023/08/13 03:51:50;;;;;;;3.83;0.73;;;15.60;99.90;;;;;;5011066;28;20029;-73
2023/08/13 03:54:16;;;;;;;2.75;0.50;;;15.60;99.90;;;;;;5009313;28;20049;-72
2023/08/13 03:56:43;;;;;;;3.78;0.73;;;15.60;99.90;;;;;;5011737;28;20906;-74
2023/08/13 03:59:09;;;;;;;4.20;0.75;;;15.60;99.90;;;;;;5013271;28;20039;-73
2023/08/13 04:01:36;;;;;;;4.38;0.60;;;15.50;99.90;;;;;;5003751;28;20037;-73
2023/08/13 04:04:02;;;;;;;3.97;0.80;;;15.50;99.90;;;;;;5018468;28;20581;-73
2023/08/13 04:06:30;;;;;;;4.78;0.80;;;15.50;99.90;;;;;;5010651;28;20041;-72
2023/08/13 04:08:56;;;;;;;3.88;0.80;;;15.50;99.90;;;;;;5009290;28;20042;-73
2023/08/13 04:11:22;;;;;;;5.85;1.02;;;15.40;99.90;;;;;;4978140;28;20033;-73
2023/08/13 04:13:49;;;;;;;5.57;0.80;;;15.40;99.90;;;;;;4979583;28;20502;-73
2023/08/13 04:16:16;;;;;;;3.33;0.80;;;15.40;99.90;;;;;;4992581;28;20484;-73
2023/08/13 04:18:45;;;;;;;4.95;0.75;;;15.40;99.90;;;;;;4998024;28;20029;-72
2023/08/13 04:21:12;;;;;;;5.32;0.93;;;15.40;99.90;;;;;;5006413;28;20033;-73
2023/08/13 04:23:38;;;;;;;4.45;0.85;;;15.50;99.90;;;;;;5018865;28;20034;-73
2023/08/13 04:26:05;;;;;;;3.95;0.75;;;15.50;99.90;;;;;;4995663;28;20468;-73
2023/08/13 04:28:33;;;;;;;5.57;0.82;;;15.50;99.90;;;;;;5010500;28;20043;-72
2023/08/13 04:30:59;;;;;;;4.38;0.90;;;15.50;99.90;;;;;;4989250;28;20036;-73
2023/08/13 04:33:28;;;;;;;3.35;0.70;;;15.50;99.90;;;;;;4980459;28;20538;-72
2023/08/13 04:35:55;;;;;;;2.83;0.80;;;15.50;99.90;;;;;;5021556;28;20037;-73
2023/08/13 04:38:24;;;;;;;5.90;0.70;;;15.50;99.90;;;;;;5009360;28;20032;-74
2023/08/13 04:40:50;;;;;;;4.55;0.80;;;15.60;99.90;;;;;;5013707;28;20048;-72
2023/08/13 04:43:18;;;;;;;3.63;0.65;;;15.60;99.90;;;;;;5002531;28;20037;-74
2023/08/13 04:45:46;;;;;;;2.45;0.57;;;15.70;99.90;;;;;;5014200;28;20029;-73
2023/08/13 04:48:17;;;;;;;4.85;0.80;;;15.80;99.90;;;;;;5010972;28;20036;-73
2023/08/13 04:50:44;;;;;;;3.92;0.70;;;15.90;99.90;;;;;;4990302;28;20041;-73
2023/08/13 04:53:10;;;;;;;4.15;0.82;;;15.90;99.90;;;;;;5012072;28;20044;-73
2023/08/13 04:55:37;;;;;;;4.28;0.70;;;16.00;99.90;;;;;;5008586;28;20029;-72
2023/08/13 04:58:03;;;;;;;4.28;0.65;;;16.10;99.90;;;;;;4993286;28;20044;-73
2023/08/13 05:00:30;;;;;;;4.90;0.60;;;16.20;99.90;;;;;;5014707;28;22546;-74
2023/08/13 05:02:57;;;;;;;3.00;0.70;;;16.30;99.90;;;;;;5004818;28;20044;-74
2023/08/13 05:05:24;;;;;;;3.40;0.98;;;16.40;99.90;;;;;;5021385;28;20033;-74
2023/08/13 05:07:50;;;;;;;2.92;0.70;;;16.50;99.90;;;;;;4996968;28;21339;-74
2023/08/13 05:10:17;;;;;;;3.58;0.80;;;16.70;99.90;;;;;;4993791;28;20041;-73
2023/08/13 05:12:44;;;;;;;5.18;0.75;;;16.90;99.90;;;;;;5022967;28;20029;-73
2023/08/13 05:15:10;;;;;;;2.40;0.60;;;17.00;99.90;;;;;;4980492;28;20048;-73
2023/08/13 05:17:38;;;;;;;2.17;0.63;;;17.00;99.90;;;;;;4993222;28;20041;-74
2023/08/13 05:20:06;;;;;;;4.40;0.63;;;17.00;99.90;;;;;;4996111;28;20131;-73
2023/08/13 05:22:33;;;;;;;4.50;0.73;;;16.90;99.90;;;;;;5024843;28;20045;-74
2023/08/13 05:24:59;;;;;;;2.75;0.70;;;16.90;99.90;;;;;;5023576;28;20094;-73
2023/08/13 05:27:27;;;;;;;5.00;0.60;;;16.90;99.90;;;;;;5019376;28;20417;-73
2023/08/13 05:29:53;;;;;;;3.75;0.60;;;17.00;99.90;;;;;;4981117;28;20512;-74
2023/08/13 05:32:22;;;;;;;4.47;0.63;;;17.00;99.90;;;;;;5015034;28;20024;-72
2023/08/13 05:34:48;;;;;;;6.75;1.05;;;17.00;99.90;;;;;;5016851;28;20032;-73
2023/08/13 05:37:15;;;;;;;3.95;0.60;;;17.10;99.90;;;;;;4997487;28;20033;-74
2023/08/13 05:39:42;;;;;;;2.30;0.65;;;17.20;99.90;;;;;;4982958;28;20995;-73
2023/08/13 05:42:08;;;;;;;1.58;0.50;;;17.30;99.90;;;;;;5006027;28;20388;-74
2023/08/13 05:44:34;;;;;;;5.68;0.80;;;17.40;99.90;;;;;;5008070;28;20036;-75
2023/08/13 05:47:02;;;;;;;3.60;1.08;;;17.40;99.90;;;;;;5020420;28;20028;-74
2023/08/13 05:49:28;;;;;;;5.07;0.70;;;17.40;99.90;;;;;;5014238;28;20041;-73
2023/08/13 05:51:55;;;;;;;4.38;0.80;;;17.50;99.90;;;;;;4997982;28;20041;-74
2023/08/13 05:54:21;;;;;;;4.47;0.90;;;17.50;99.90;;;;;;5026928;28;21160;-73
2023/08/13 05:56:48;;;;;;;3.25;0.70;;;17.60;99.90;;;;;;5013430;28;20025;-72
2023/08/13 05:59:15;;;;;;;4.88;0.88;;;17.70;99.90;;;;;;5011029;28;20041;-73
2023/08/13 06:01:41;;;;;;;3.10;0.60;;;17.70;99.90;;;;;;5017479;28;20056;-73
2023/08/13 06:04:08;;;;;;;5.43;0.82;;;17.80;99.90;;;;;;5021078;28;20033;-74
2023/08/13 06:06:34;;;;;;;5.13;0.90;;;17.90;99.90;;;;;;5022301;28;20032;-73
2023/08/13 06:09:01;;;;;;;3.97;0.80;;;18.00;99.90;;;;;;5013499;28;20021;-73
2023/08/13 06:11:27;;;;;;;8.25;1.35;;;18.10;99.90;;;;;;4994902;28;20523;-74
2023/08/13 06:13:54;;;;;;;6.30;1.10;;;18.30;99.90;;;;;;4998746;28;20028;-74
2023/08/13 06:16:20;;;;;;;6.28;1.13;;;18.40;99.90;;;;;;4998889;28;20036;-73
2023/08/13 06:18:46;;;;;;;7.40;1.55;;;18.50;99.90;;;;;;5013563;28;20053;-73
2023/08/13 06:21:13;;;;;;;4.85;1.38;;;18.50;99.90;;;;;;5013910;28;20905;-73
2023/08/13 06:23:39;;;;;;;6.68;1.30;;;18.60;99.90;;;;;;5025543;28;20483;-74
2023/08/13 06:26:06;;;;;;;4.18;0.80;;;18.70;99.90;;;;;;5022609;28;20033;-74
2023/08/13 06:28:34;;;;;;;6.25;1.40;;;18.90;99.90;;;;;;5017113;28;20056;-74
2023/08/13 06:31:01;;;;;;;5.40;0.85;;;19.00;99.90;;;;;;5012554;28;20376;-74
2023/08/13 06:33:27;;;;;;;7.00;1.20;;;19.20;99.90;;;;;;5011672;28;20380;-73
2023/08/13 06:35:54;;;;;;;5.50;1.23;;;19.40;99.90;;;;;;4998725;28;20052;-73
2023/08/13 06:38:20;;;;;;;7.35;1.08;;;19.70;99.90;;;;;;4996450;28;20049;-73
2023/08/13 06:40:47;;;;;;;5.65;1.20;;;19.90;99.90;;;;;;5012060;28;20040;-73
2023/08/13 06:43:14;;;;;;;7.63;1.27;;;20.20;99.90;;;;;;5003743;28;20061;-74
2023/08/13 06:45:40;;;;;;;7.43;1.05;;;20.50;99.90;;;;;;5022483;28;20025;-74
2023/08/13 06:48:08;;;;;;;3.75;0.80;;;20.80;99.90;;;;;;5002335;28;20052;-73
2023/08/13 06:50:35;;;;;;;7.78;1.38;;;21.10;99.90;;;;;;5012919;28;20041;-73
2023/08/13 06:53:01;;;;;;;4.72;0.85;;;21.40;99.90;;;;;;5016312;28;20044;-73
2023/08/13 06:55:27;;;;;;;5.22;0.95;;;21.50;99.90;;;;;;5014920;28;20509;-74
2023/08/13 06:57:54;;;;;;;2.75;0.70;;;21.60;99.90;;;;;;5011431;28;20483;-73
2023/08/13 07:00:20;;;;;;;6.57;1.08;;;21.70;99.90;;;;;;5012153;28;20037;-74
2023/08/13 07:02:48;;;;;;;5.60;0.80;;;21.70;99.90;;;;;;5016728;28;20033;-75
2023/08/13 07:05:16;;;;;;;7.40;1.25;;;21.80;99.90;;;;;;5024172;28;20021;-74
2023/08/13 07:07:42;;;;;;;6.75;1.20;;;21.80;99.90;;;;;;4987981;28;20403;-74
2023/08/13 07:10:09;;;;;;;5.88;1.20;;;22.00;99.90;;;;;;4992274;28;20059;-75
2023/08/13 07:12:36;;;;;;;5.80;0.93;;;22.20;99.90;;;;;;5011277;28;20522;-75
2023/08/13 07:15:03;;;;;;;4.55;0.85;;;22.30;99.90;;;;;;4999478;28;20487;-74
2023/08/13 07:17:30;;;;;;;6.72;1.05;;;22.30;99.90;;;;;;5008228;28;20037;-74
2023/08/13 07:19:57;;;;;;;4.70;1.00;;;22.30;99.90;;;;;;5013204;28;20029;-74
2023/08/13 07:22:23;;;;;;;6.15;0.80;;;22.20;99.90;;;;;;5012999;28;20040;-74
2023/08/13 07:24:50;;;;;;;5.85;1.08;;;22.20;99.90;;;;;;5021728;28;20037;-75
2023/08/13 07:27:16;;;;;;;5.53;1.30;;;22.20;99.90;;;;;;5006297;28;20040;-74
2023/08/13 07:29:43;;;;;;;4.75;0.93;;;22.30;99.90;;;;;;5014165;28;20347;-75
2023/08/13 07:32:09;;;;;;;5.30;0.85;;;22.30;99.90;;;;;;5012318;28;20523;-74
2023/08/13 07:34:35;;;;;;;7.47;1.25;;;22.40;99.90;;;;;;5011334;28;20048;-75
2023/08/13 07:37:02;;;;;;;5.55;0.95;;;22.50;99.90;;;;;;5000383;28;20032;-75
2023/08/13 07:39:30;;;;;;;6.30;0.82;;;22.50;99.90;;;;;;4995486;28;20037;-75
2023/08/13 07:41:56;;;;;;;4.15;1.00;;;22.50;99.90;;;;;;4996404;28;22536;-74
2023/08/13 07:44:24;;;;;;;6.03;0.90;;;22.60;99.90;;;;;;5007102;28;20036;-76
2023/08/13 07:46:54;;;;;;;4.13;0.90;;;22.70;99.90;;;;;;5017233;28;20414;-74
2023/08/13 07:49:20;;;;;;;3.00;0.80;;;22.80;99.90;;;;;;5014057;28;20037;-74
2023/08/13 07:51:47;;;;;;;5.60;0.98;;;22.80;99.90;;;;;;5011152;28;20503;-74
2023/08/13 07:54:13;;;;;;;6.43;0.90;;;23.00;99.90;;;;;;4996513;28;20028;-74
2023/08/13 07:56:40;;;;;;;4.22;0.70;;;23.10;99.90;;;;;;4992599;28;20036;-74
2023/08/13 07:59:06;;;;;;;3.92;0.63;;;23.20;99.90;;;;;;4988336;28;20045;-74
2023/08/13 08:01:33;;;;;;;4.70;0.85;;;23.30;99.90;;;;;;5010195;28;20116;-74
2023/08/13 08:03:59;;;;;;;7.03;1.08;;;23.40;99.90;;;;;;5017693;28;20372;-73
2023/08/13 08:06:26;;;;;;;6.97;1.15;;;23.50;99.90;;;;;;5022894;28;20418;-73
2023/08/13 08:08:52;;;;;;;4.53;1.35;;;23.50;99.90;;;;;;5005197;28;20372;-74
2023/08/13 08:11:19;;;;;;;6.75;0.80;;;23.50;99.90;;;;;;4998704;28;20619;-73
2023/08/13 08:13:45;;;;;;;5.50;1.30;;;23.50;99.90;;;;;;5011509;28;20064;-74
2023/08/13 08:16:12;;;;;;;6.18;0.98;;;23.50;99.90;;;;;;5011176;28;20048;-74
2023/08/13 08:18:38;;;;;;;3.78;0.95;;;23.50;99.90;;;;;;5023732;28;20044;-74
2023/08/13 08:21:05;;;;;;;4.32;0.85;;;23.40;99.90;;;;;;5010417;28;20372;-74
2023/08/13 08:23:33;;;;;;;5.20;0.80;;;23.60;99.90;;;;;;5011327;28;20557;-74
2023/08/13 08:25:59;;;;;;;4.45;0.93;;;23.90;99.90;;;;;;5003293;28;20032;-74
2023/08/13 08:28:26;;;;;;;7.75;1.65;;;24.00;99.90;;;;;;5018990;28;20044;-74
2023/08/13 08:30:53;;;;;;;4.93;0.80;;;24.10;99.90;;;;;;4982175;28;20968;-75
2023/08/13 08:33:21;;;;;;;4.38;0.70;;;24.00;99.90;;;;;;5008463;28;20025;-75
2023/08/13 08:35:47;;;;;;;4.68;0.80;;;23.90;99.90;;;;;;5010459;28;20043;-73
2023/08/13 08:38:14;;;;;;;3.13;0.75;;;23.70;99.90;;;;;;5011873;28;20055;-74
2023/08/13 08:40:46;;;;;;;3.85;0.95;;;23.60;99.90;;;;;;5011578;28;20041;-74
2023/08/13 08:43:14;;;;;;;4.50;1.10;;;23.60;99.90;;;;;;4994125;28;21314;-74
2023/08/13 08:45:43;;;;;;;8.77;0.95;;;23.60;99.90;;;;;;5014999;28;20040;-75
2023/08/13 08:48:11;;;;;;;4.90;0.80;;;23.60;99.90;;;;;;5020535;28;20378;-74
2023/08/13 08:50:37;;;;;;;5.00;0.88;;;23.60;99.90;;;;;;4984273;28;20025;-75
2023/08/13 08:53:04;;;;;;;5.07;0.75;;;23.70;99.90;;;;;;4973777;28;20472;-75
2023/08/13 08:55:31;;;;;;;5.88;1.05;;;23.80;99.90;;;;;;5006412;28;20394;-73
2023/08/13 08:57:58;;;;;;;4.10;0.68;;;23.90;99.90;;;;;;5006821;28;20037;-74
2023/08/13 09:00:24;;;;;;;5.05;0.70;;;23.90;99.90;;;;;;4986304;28;20381;-75
2023/08/13 09:02:51;;;;;;;4.78;1.05;;;24.10;99.90;;;;;;4990917;28;20042;-73
2023/08/13 09:05:19;;;;;;;3.85;0.70;;;24.30;99.90;;;;;;5009280;28;20033;-73
2023/08/13 09:07:45;;;;;;;3.42;0.70;;;24.50;99.90;;;;;;5017813;28;20044;-75
2023/08/13 09:10:12;;;;;;;4.80;0.77;;;24.60;99.90;;;;;;5020401;28;20040;-75
2023/08/13 09:12:40;;;;;;;4.15;0.88;;;24.80;99.90;;;;;;4974619;28;20033;-73
2023/08/13 09:15:12;;;;;;;10.70;1.63;;;25.00;99.90;;;;;;5011128;28;21271;-73
2023/08/13 09:17:39;;;;;;;4.80;0.93;;;25.10;99.90;;;;;;5004186;28;20036;-74
2023/08/13 09:20:19;;;;;;;5.40;1.02;;;25.10;99.90;;;;;;4976461;28;20459;-72
2023/08/13 09:22:52;;;;;;;7.20;1.70;;;25.10;99.90;;;;;;5010245;28;20364;-74
2023/08/13 09:25:19;;;;;;;5.10;0.90;;;25.10;99.90;;;;;;5012902;28;20029;-73
2023/08/13 09:27:46;;;;;;;8.30;1.23;;;25.10;99.90;;;;;;5020530;28;20508;-75
2023/08/13 09:30:21;;;;;;;5.28;0.93;;;25.10;99.90;;;;;;5018564;28;20044;-75
2023/08/13 09:32:47;;;;;;;6.05;1.20;;;25.10;99.90;;;;;;5011900;28;20025;-74
2023/08/13 09:35:14;;;;;;;5.30;0.90;;;25.30;99.90;;;;;;5013305;28;20040;-73
2023/08/13 09:37:40;;;;;;;5.65;0.82;;;25.40;99.90;;;;;;4992825;28;20032;-75
2023/08/13 09:40:07;;;;;;;4.28;0.60;;;25.40;99.90;;;;;;4992735;28;20037;-73
2023/08/13 09:42:35;;;;;;;4.30;0.70;;;25.40;99.90;;;;;;5024627;28;20045;-75
2023/08/13 09:45:03;;;;;;;4.70;0.70;;;25.40;99.90;;;;;;5008259;28;20021;-75
2023/08/13 09:47:35;;;;;;;5.65;0.75;;;25.50;99.90;;;;;;5029614;28;20041;-73
2023/08/13 09:50:02;;;;;;;6.88;1.10;;;25.60;99.90;;;;;;5007628;28;20032;-74
2023/08/13 09:52:31;;;;;;;5.45;1.15;;;25.70;99.90;;;;;;4996079;28;20499;-73
2023/08/13 09:55:10;;;;;;;5.32;0.90;;;25.80;99.90;;;;;;5020562;28;20036;-75
2023/08/13 09:57:38;;;;;;;6.40;1.00;;;26.00;99.90;;;;;;5029544;28;20380;-77
2023/08/13 10:00:07;;;;;;;7.40;1.40;;;26.10;99.90;;;;;;5007779;28;20036;-76
2023/08/13 10:02:34;;;;;;;5.78;0.90;;;26.20;99.90;;;;;;5010201;28;20490;-77
2023/08/13 10:05:03;;;;;;;3.95;1.30;;;26.10;99.90;;;;;;5012130;28;20391;-75
2023/08/13 10:07:30;;;;;;;5.05;0.90;;;26.10;99.90;;;;;;4998564;28;20313;-79
2023/08/13 10:09:59;;;;;;;7.03;0.95;;;26.10;99.90;;;;;;5020930;28;20444;-76
2023/08/13 10:12:26;;;;;;;4.30;0.85;;;26.00;99.90;;;;;;5022906;28;20879;-77
2023/08/13 10:14:52;;;;;;;3.85;1.02;;;26.00;99.90;;;;;;4983237;28;20041;-77
2023/08/13 10:17:19;;;;;;;6.90;1.15;;;26.10;99.90;;;;;;5013235;28;20459;-79
2023/08/13 10:19:49;;;;;;;5.88;1.00;;;26.00;99.90;;;;;;5011641;28;20412;-79
2023/08/13 10:22:23;;;;;;;5.20;1.10;;;26.00;99.90;;;;;;4994557;28;20380;-76
2023/08/13 10:24:50;;;;;;;5.47;0.90;;;26.10;99.90;;;;;;4981362;28;20052;-80
2023/08/13 10:27:21;;;;;;;4.88;0.82;;;26.20;99.90;;;;;;5018127;28;20895;-76
2023/08/13 10:29:48;;;;;;;3.38;0.70;;;26.40;99.90;;;;;;5021625;28;20033;-78
2023/08/13 10:32:16;;;;;;;6.85;1.10;;;26.50;99.90;;;;;;5017997;28;20025;-75
2023/08/13 10:34:53;;;;;;;4.97;0.90;;;26.70;99.90;;;;;;5011078;28;20347;-74
2023/08/13 10:37:21;;;;;;;4.88;0.73;;;26.80;99.90;;;;;;4992400;28;20514;-73
2023/08/13 10:40:06;;;;;;;5.15;0.90;;;27.00;99.90;;;;;;4994723;28;20039;-74
2023/08/13 10:42:34;;;;;;;4.22;0.95;;;27.20;99.90;;;;;;4991117;28;20312;-74
2023/08/13 10:45:08;;;;;;;5.57;0.90;;;27.30;99.90;;;;;;4993979;28;20045;-73
2023/08/13 10:47:50;;;;;;;4.70;1.50;;;27.30;99.90;;;;;;5012926;28;20044;-74
2023/08/13 10:50:28;;;;;;;6.43;1.20;;;27.20;99.90;;;;;;5002750;28;20041;-77
2023/08/13 10:53:26;;;;;;;5.25;1.13;;;27.10;99.90;;;;;;5000289;28;20047;-76
2023/08/13 10:55:54;;;;;;;4.43;0.90;;;27.10;99.90;;;;;;4997072;28;20045;-77
2023/08/13 10:58:26;;;;;;;4.90;1.67;;;27.20;99.90;;;;;;4995758;28;20037;-76
2023/08/13 11:01:19;;;;;;;6.53;1.60;;;27.20;99.90;;;;;;5011967;28;20029;-75
2023/08/13 11:03:54;;;;;;;7.57;1.10;;;27.40;99.90;;;;;;5011377;28;20048;-76
2023/08/13 11:06:22;;;;;;;2.85;0.85;;;27.60;99.90;;;;;;5010197;28;20037;-78
2023/08/13 11:08:49;;;;;;;4.82;0.63;;;27.70;99.90;;;;;;5017493;28;20041;-79
2023/08/13 11:11:16;;;;;;;2.65;0.50;;;27.70;99.90;;;;;;5002065;28;20036;-75
2023/08/13 11:13:43;;;;;;;5.35;0.70;;;27.70;99.90;;;;;;5016081;28;20036;-76
2023/08/13 11:16:09;;;;;;;4.18;0.80;;;27.40;99.90;;;;;;4990263;28;21034;-77
2023/08/13 11:18:36;;;;;;;2.47;0.90;;;27.10;99.90;;;;;;4991955;28;20048;-77
2023/08/13 11:21:05;;;;;;;6.80;1.10;;;26.80;99.90;;;;;;4990829;28;20033;-76
2023/08/13 11:23:32;;;;;;;5.20;0.70;;;26.50;99.90;;;;;;4992050;28;20040;-74
2023/08/13 11:25:58;;;;;;;5.43;0.80;;;26.30;99.90;;;;;;4991546;28;20045;-75
2023/08/13 11:28:27;;;;;;;6.82;1.05;;;26.40;99.90;;;;;;5013125;28;20040;-76
2023/08/13 11:30:56;;;;;;;3.33;0.60;;;26.50;99.90;;;;;;5017757;28;20041;-75
2023/08/13 11:33:24;;;;;;;4.32;0.75;;;26.60;99.90;;;;;;5016627;28;20036;-76
2023/08/13 11:35:51;;;;;;;3.55;0.75;;;27.00;99.90;;;;;;4990170;28;20035;-77
2023/08/13 11:38:18;;;;;;;4.95;0.77;;;27.70;99.90;;;;;;5008586;28;20620;-75
2023/08/13 11:40:44;;;;;;;4.10;0.75;;;28.50;99.90;;;;;;4984566;28;20048;-76
2023/08/13 11:43:12;;;;;;;5.13;1.35;;;28.70;99.80;;;;;;5011225;28;20044;-77
2023/08/13 11:45:40;;;;;;;2.47;0.90;;;28.60;99.70;;;;;;4995138;28;20071;-77
2023/08/13 11:48:20;;;;;;;3.58;0.70;;;28.60;99.40;;;;;;5007802;28;20033;-78
2023/08/13 11:50:56;;;;;;;3.70;0.80;;;28.40;98.60;;;;;;5015867;28;20048;-77
2023/08/13 11:53:22;;;;;;;2.92;0.60;;;28.10;98.70;;;;;;5020806;28;20026;-75
2023/08/13 11:55:49;;;;;;;6.97;1.25;;;27.70;98.90;;;;;;4997957;28;20571;-75
2023/08/13 11:58:17;;;;;;;6.03;1.00;;;27.40;99.10;;;;;;5006663;28;20032;-74
2023/08/13 12:00:46;;;;;;;3.70;1.00;;;27.70;99.70;;;;;;4991600;28;20040;-75
2023/08/13 12:03:13;;;;;;;4.18;0.80;;;28.40;99.40;;;;;;5009235;28;20530;-76
2023/08/13 12:05:39;;;;;;;6.57;1.20;;;28.50;98.50;;;;;;5010911;28;20415;-75
2023/08/13 12:08:09;;;;;;;3.53;0.90;;;28.20;98.10;;;;;;5008577;28;20416;-75
2023/08/13 12:10:36;;;;;;;4.85;0.90;;;28.10;97.90;;;;;;5017405;28;20051;-76
2023/08/13 12:13:04;;;;;;;6.00;1.20;;;28.20;97.90;;;;;;5019994;28;20034;-76
2023/08/13 12:15:31;;;;;;;4.28;0.90;;;28.30;97.80;;;;;;5014361;28;20044;-77
2023/08/13 12:17:58;;;;;;;3.15;0.80;;;28.70;97.90;;;;;;5008079;28;20025;-77
2023/08/13 12:20:27;;;;;;;4.50;0.88;;;29.30;97.40;;;;;;5009537;28;20042;-75
2023/08/13 12:22:54;;;;;;;5.05;0.98;;;29.70;96.60;;;;;;4994527;28;20049;-77
2023/08/13 12:25:38;;;;;;;5.72;1.10;;;29.70;96.20;;;;;;5010699;28;20052;-75
2023/08/13 12:28:05;;;;;;;4.70;1.40;;;29.80;96.00;;;;;;4991292;28;20040;-77
2023/08/13 12:30:31;;;;;;;4.50;1.00;;;29.60;96.00;;;;;;5012624;28;20562;-78
2023/08/13 12:32:58;;;;;;;4.70;1.00;;;29.40;95.80;;;;;;5019208;28;20034;-78
2023/08/13 12:35:25;;;;;;;4.57;1.02;;;29.20;96.10;;;;;;5003226;28;20047;-76
2023/08/13 12:37:52;;;;;;;3.90;0.90;;;29.20;96.20;;;;;;5011168;28;20040;-76
2023/08/13 12:40:18;;;;;;;5.00;1.30;;;29.10;95.70;;;;;;4993952;28;20059;-76
2023/08/13 12:42:45;;;;;;;5.05;1.05;;;28.90;95.50;;;;;;5009603;28;20045;-77
2023/08/13 12:45:11;;;;;;;4.45;0.98;;;28.60;95.30;;;;;;4996272;28;20029;-75
2023/08/13 12:47:37;;;;;;;3.60;0.88;;;28.40;95.60;;;;;;5009852;28;20431;-77
2023/08/13 12:50:06;;;;;;;4.35;1.08;;;28.00;95.90;;;;;;5012422;28;20043;-76
2023/08/13 12:52:33;;;;;;;3.33;0.68;;;27.60;96.10;;;;;;5002711;28;20044;-75